Time;durP1;ratioP1;P1;durP2;ratioP2;P2;SDS_P1;SDS_P2;PMS_P1;PMS_P2;Temp;Humidity;BMP_temperature;BMP_pressure;BME280_temperature;BME280_humidity;BME280_pressure;Samples;Min_cycle;Max_cycle;Signal;HPM_P1;HPM_P2
2022/03/25 00:01:53;;;;;;;;;;;12.80;62.60;;;;;;4995431;28;19976;-65
2022/03/25 00:04:18;;;;;;;;;;;12.70;62.00;;;;;;4993834;28;20308;-66
2022/03/25 00:06:44;;;;;;;;;;;12.70;62.60;;;;;;4994541;28;20312;-68
2022/03/25 00:09:09;;;;;;;;;;;12.70;61.80;;;;;;4995269;28;19953;-66
2022/03/25 00:11:35;;;;;;;;;;;12.70;61.70;;;;;;4994181;28;20307;-66
2022/03/25 00:14:01;;;;;;;;;;;12.70;61.20;;;;;;4995623;28;19910;-68
2022/03/25 00:16:27;;;;;;;;;;;12.80;61.20;;;;;;4996502;28;19914;-67
2022/03/25 00:18:54;;;;;;;;;;;12.80;61.00;;;;;;4994759;28;20274;-67
2022/03/25 00:21:20;;;;;;;;;;;12.70;61.30;;;;;;4995090;28;20362;-67
2022/03/25 00:23:45;;;;;;;;;;;12.60;61.70;;;;;;4993230;28;19972;-66
2022/03/25 00:26:11;;;;;;;;;;;12.50;62.00;;;;;;4994571;28;19920;-67
2022/03/25 00:28:37;;;;;;;;;;;12.60;61.90;;;;;;4993030;28;20270;-70
2022/03/25 00:31:06;;;;;;;;;;;12.60;61.90;;;;;;4995226;28;19916;-66
2022/03/25 00:33:32;;;;;;;;;;;12.60;61.80;;;;;;4994368;28;19910;-63
2022/03/25 00:35:58;;;;;;;;;;;12.60;61.90;;;;;;4995383;28;19916;-67
2022/03/25 00:38:23;;;;;;;;;;;12.40;62.10;;;;;;4995345;28;19914;-66
2022/03/25 00:40:49;;;;;;;;;;;12.40;62.30;;;;;;4994245;28;20056;-62
2022/03/25 00:43:15;;;;;;;;;;;12.40;62.40;;;;;;4993527;28;19917;-64
2022/03/25 00:45:41;;;;;;;;;;;12.40;62.50;;;;;;4993986;28;19910;-66
2022/03/25 00:48:07;;;;;;;;;;;12.30;62.60;;;;;;4993726;28;20413;-64
2022/03/25 00:50:33;;;;;;;;;;;12.30;62.80;;;;;;4995533;28;19964;-64
2022/03/25 00:52:59;;;;;;;;;;;12.20;62.90;;;;;;4996168;28;20282;-66
2022/03/25 00:55:24;;;;;;;;;;;12.20;62.80;;;;;;4994407;28;19914;-66
2022/03/25 00:57:50;;;;;;;;;;;12.20;62.80;;;;;;4995171;28;20210;-67
2022/03/25 01:00:15;;;;;;;;;;;12.30;62.80;;;;;;4996031;28;19950;-65
2022/03/25 01:02:41;;;;;;;;;;;12.20;63.20;;;;;;4993833;28;19972;-65
2022/03/25 01:05:06;;;;;;;;;;;12.20;63.10;;;;;;4993514;28;19925;-67
2022/03/25 01:07:34;;;;;;;;;;;12.20;63.20;;;;;;4992555;28;19914;-65
2022/03/25 01:09:59;;;;;;;;;;;12.10;63.10;;;;;;4994424;28;19914;-66
2022/03/25 01:12:25;;;;;;;;;;;12.20;63.30;;;;;;4992967;28;19910;-67
2022/03/25 01:14:51;;;;;;;;;;;12.10;63.30;;;;;;4992256;28;20174;-65
2022/03/25 01:17:19;;;;;;;;;;;12.10;63.30;;;;;;4994870;28;20326;-66
2022/03/25 01:19:45;;;;;;;;;;;12.20;63.20;;;;;;4993702;28;19916;-63
2022/03/25 01:22:11;;;;;;;;;;;12.10;63.00;;;;;;4993674;28;20016;-66
2022/03/25 01:24:37;;;;;;;;;;;12.20;63.20;;;;;;4994862;28;19914;-67
2022/03/25 01:27:04;;;;;;;;;;;12.10;63.50;;;;;;4993562;28;20280;-67
2022/03/25 01:29:29;;;;;;;;;;;12.00;63.90;;;;;;4994108;28;19914;-66
2022/03/25 01:31:55;;;;;;;;;;;12.00;63.90;;;;;;4993047;28;20009;-65
2022/03/25 01:34:22;;;;;;;;;;;12.00;63.70;;;;;;4993698;28;20406;-67
2022/03/25 01:36:48;;;;;;;;;;;12.00;63.70;;;;;;4993087;28;19956;-66
2022/03/25 01:39:14;;;;;;;;;;;12.00;63.90;;;;;;4992301;28;19917;-66
2022/03/25 01:41:39;;;;;;;;;;;12.00;64.00;;;;;;4993181;28;20422;-65
2022/03/25 01:44:05;;;;;;;;;;;12.00;63.80;;;;;;4993834;28;19941;-66
2022/03/25 01:46:31;;;;;;;;;;;12.00;63.70;;;;;;4994342;28;19913;-66
2022/03/25 01:48:57;;;;;;;;;;;12.00;63.90;;;;;;4994957;28;19914;-66
2022/03/25 01:51:30;;;;;;;;;;;12.00;63.80;;;;;;4994603;28;19960;-67
2022/03/25 01:54:00;;;;;;;;;;;11.90;64.10;;;;;;4992285;28;19913;-66
2022/03/25 01:56:25;;;;;;;;;;;11.90;64.20;;;;;;4994666;28;19914;-63
2022/03/25 01:58:51;;;;;;;;;;;11.80;64.40;;;;;;4992683;28;19968;-66
2022/03/25 02:01:17;;;;;;;;;;;11.90;64.40;;;;;;4996138;28;19914;-66
2022/03/25 02:03:44;;;;;;;;;;;11.80;64.40;;;;;;4998286;28;19953;-65
2022/03/25 02:06:10;;;;;;;;;;;11.70;64.70;;;;;;4997849;28;20386;-64
2022/03/25 02:08:35;;;;;;;;;;;11.70;64.50;;;;;;4995695;28;19940;-66
2022/03/25 02:11:01;;;;;;;;;;;11.60;64.80;;;;;;4995176;28;19917;-68
2022/03/25 02:13:26;;;;;;;;;;;11.60;64.90;;;;;;4994762;28;20009;-65
2022/03/25 02:15:52;;;;;;;;;;;11.70;65.00;;;;;;4996115;28;19910;-65
2022/03/25 02:18:18;;;;;;;;;;;11.70;65.10;;;;;;4995245;28;19917;-66
2022/03/25 02:20:44;;;;;;;;;;;11.50;65.40;;;;;;4993944;28;19921;-65
2022/03/25 02:23:10;;;;;;;;;;;11.60;65.80;;;;;;4995141;28;20255;-66
2022/03/25 02:25:37;;;;;;;;;;;11.60;65.20;;;;;;4993941;28;19937;-66
2022/03/25 02:28:04;;;;;;;;;;;11.60;65.30;;;;;;4993154;28;19922;-65
2022/03/25 02:30:30;;;;;;;;;;;11.50;65.40;;;;;;4992625;28;20364;-66
2022/03/25 02:33:00;;;;;;;;;;;11.60;65.20;;;;;;4992337;28;19914;-65
2022/03/25 02:35:36;;;;;;;;;;;11.50;65.50;;;;;;4994290;28;19917;-65
2022/03/25 02:38:03;;;;;;;;;;;11.50;65.50;;;;;;4992983;28;19910;-65
2022/03/25 02:40:28;;;;;;;;;;;11.40;65.70;;;;;;4992901;28;20417;-66
2022/03/25 02:42:54;;;;;;;;;;;11.40;66.30;;;;;;4992299;28;20009;-65
2022/03/25 02:45:20;;;;;;;;;;;11.30;66.00;;;;;;4994169;28;20003;-66
2022/03/25 02:47:45;;;;;;;;;;;11.30;66.40;;;;;;4992347;28;19913;-67
2022/03/25 02:50:11;;;;;;;;;;;11.30;66.30;;;;;;4993365;28;19914;-65
2022/03/25 02:52:37;;;;;;;;;;;11.30;66.50;;;;;;5018719;23;19932;-66
2022/03/25 02:55:02;;;;;;;;;;;11.30;66.60;;;;;;5013459;28;19913;-65
2022/03/25 02:57:28;;;;;;;;;;;11.20;66.80;;;;;;5013577;28;20425;-66
2022/03/25 02:59:54;;;;;;;;;;;11.30;66.70;;;;;;5013214;28;20274;-66
2022/03/25 03:02:19;;;;;;;;;;;11.20;66.80;;;;;;5033110;23;19993;-67
2022/03/25 03:04:45;;;;;;;;;;;11.20;66.70;;;;;;5032862;28;19913;-69
2022/03/25 03:07:10;;;;;;;;;;;11.20;66.90;;;;;;5051250;28;20374;-67
2022/03/25 03:09:36;;;;;;;;;;;11.20;66.70;;;;;;5033510;28;20222;-67
2022/03/25 03:12:02;;;;;;;;;;;11.20;66.80;;;;;;5050333;28;20102;-68
2022/03/25 03:14:27;;;;;;;;;;;11.10;66.70;;;;;;5033267;28;20372;-69
2022/03/25 03:16:53;;;;;;;;;;;11.10;67.10;;;;;;5032638;28;19916;-68
2022/03/25 03:19:18;;;;;;;;;;;11.20;66.90;;;;;;5033304;28;20255;-67
2022/03/25 03:21:45;;;;;;;;;;;11.10;67.10;;;;;;5050618;28;19912;-67
2022/03/25 03:24:10;;;;;;;;;;;11.10;66.90;;;;;;5033190;28;19908;-67
2022/03/25 03:26:36;;;;;;;;;;;11.20;66.90;;;;;;5032997;28;19924;-68
2022/03/25 03:29:02;;;;;;;;;;;11.10;67.00;;;;;;5032446;28;19916;-68
2022/03/25 03:31:28;;;;;;;;;;;11.10;67.00;;;;;;5051152;28;20392;-68
2022/03/25 03:33:53;;;;;;;;;;;11.00;67.10;;;;;;5050667;28;19943;-68
2022/03/25 03:36:19;;;;;;;;;;;11.10;67.20;;;;;;5050795;28;19923;-68
2022/03/25 03:38:44;;;;;;;;;;;11.00;67.70;;;;;;5032358;28;19909;-68
2022/03/25 03:41:10;;;;;;;;;;;10.90;67.50;;;;;;5032908;28;19916;-67
2022/03/25 03:43:36;;;;;;;;;;;10.90;67.50;;;;;;5050705;28;19909;-68
2022/03/25 03:46:02;;;;;;;;;;;11.00;67.40;;;;;;5032177;28;19913;-69
2022/03/25 03:48:28;;;;;;;;;;;10.80;67.80;;;;;;5050902;28;20015;-68
2022/03/25 03:50:53;;;;;;;;;;;10.80;68.00;;;;;;5050080;28;20058;-68
2022/03/25 03:53:19;;;;;;;;;;;10.70;68.40;;;;;;5032848;28;20369;-68
2022/03/25 03:55:44;;;;;;;;;;;10.70;68.70;;;;;;5032436;28;19920;-68
2022/03/25 03:58:10;;;;;;;;;;;10.80;68.10;;;;;;5032753;28;19909;-68
2022/03/25 04:00:35;;;;;;;;;;;10.80;68.10;;;;;;5050705;28;19916;-68
2022/03/25 04:03:01;;;;;;;;;;;10.80;67.80;;;;;;5053082;28;20172;-69
2022/03/25 04:05:27;;;;;;;;;;;10.80;68.00;;;;;;5054550;28;19913;-68
2022/03/25 04:07:52;;;;;;;;;;;10.80;68.10;;;;;;5035777;28;19916;-69
2022/03/25 04:10:18;;;;;;;;;;;10.80;68.20;;;;;;5036258;28;20422;-67
2022/03/25 04:12:44;;;;;;;;;;;10.80;68.40;;;;;;5053894;28;19958;-68
2022/03/25 04:15:10;;;;;;;;;;;10.80;68.30;;;;;;5053928;28;20231;-68
2022/03/25 04:17:39;;;;;;;;;;;10.90;68.00;;;;;;5054134;28;19909;-68
2022/03/25 04:20:06;;;;;;;;;;;10.90;67.80;;;;;;5053492;28;19909;-68
2022/03/25 04:22:31;;;;;;;;;;;10.80;68.10;;;;;;5036099;28;19913;-68
2022/03/25 04:24:57;;;;;;;;;;;10.90;67.90;;;;;;5035404;28;19909;-68
2022/03/25 04:27:23;;;;;;;;;;;10.90;68.10;;;;;;5035508;28;20342;-69
2022/03/25 04:29:49;;;;;;;;;;;10.80;68.30;;;;;;5035360;28;19909;-68
2022/03/25 04:32:14;;;;;;;;;;;10.80;68.30;;;;;;5053468;28;20376;-69
2022/03/25 04:34:40;;;;;;;;;;;10.90;68.80;;;;;;5035680;28;19912;-69
2022/03/25 04:37:05;;;;;;;;;;;10.80;68.10;;;;;;5035129;28;20357;-68
2022/03/25 04:39:31;;;;;;;;;;;10.90;68.00;;;;;;5053786;28;20306;-69
2022/03/25 04:41:56;;;;;;;;;;;10.80;68.30;;;;;;5035116;28;20437;-68
2022/03/25 04:44:22;;;;;;;;;;;10.80;68.40;;;;;;5054146;28;19908;-68
2022/03/25 04:46:47;;;;;;;;;;;10.70;68.50;;;;;;5052724;28;19917;-69
2022/03/25 04:49:13;;;;;;;;;;;10.60;68.60;;;;;;5035690;28;20358;-69
2022/03/25 04:51:38;;;;;;;;;;;10.50;69.30;;;;;;5034556;28;19909;-69
2022/03/25 04:54:04;;;;;;;;;;;10.40;69.40;;;;;;5035009;28;20165;-70
2022/03/25 04:56:30;;;;;;;;;;;10.50;69.20;;;;;;5054013;28;19909;-69
2022/03/25 04:58:55;;;;;;;;;;;10.60;69.10;;;;;;5053085;28;19909;-69
2022/03/25 05:01:21;;;;;;;;;;;10.60;69.00;;;;;;5035883;28;19916;-70
2022/03/25 05:03:46;;;;;;;;;;;10.60;69.00;;;;;;5034577;28;19921;-68
2022/03/25 05:06:12;;;;;;;;;;;10.60;69.00;;;;;;5035141;28;19936;-69
2022/03/25 05:08:38;;;;;;;;;;;10.60;69.00;;;;;;5035795;28;19909;-71
2022/03/25 05:11:04;;;;;;;;;;;10.50;69.40;;;;;;5052699;28;19913;-69
2022/03/25 05:13:30;;;;;;;;;;;10.50;69.60;;;;;;5034912;28;19909;-69
2022/03/25 05:15:55;;;;;;;;;;;10.40;69.90;;;;;;5024901;28;19944;-70
2022/03/25 05:18:22;;;;;;;;;;;10.50;70.00;;;;;;5033626;28;19909;-70
2022/03/25 05:20:48;;;;;;;;;;;10.40;69.90;;;;;;5032398;28;20349;-69
2022/03/25 05:23:13;;;;;;;;;;;10.30;70.20;;;;;;5015374;28;19920;-69
2022/03/25 05:25:39;;;;;;;;;;;10.30;70.40;;;;;;5015200;28;20318;-70
2022/03/25 05:28:05;;;;;;;;;;;10.30;70.50;;;;;;5014300;28;19917;-71
2022/03/25 05:30:31;;;;;;;;;;;10.10;70.80;;;;;;5015203;28;19959;-69
2022/03/25 05:32:58;;;;;;;;;;;10.10;71.10;;;;;;5032324;28;19913;-69
2022/03/25 05:35:23;;;;;;;;;;;10.20;71.00;;;;;;5015279;28;19913;-69
2022/03/25 05:37:49;;;;;;;;;;;10.10;71.10;;;;;;5014267;28;20007;-70
2022/03/25 05:40:16;;;;;;;;;;;10.10;71.10;;;;;;5032998;28;19955;-70
2022/03/25 05:42:42;;;;;;;;;;;10.30;71.00;;;;;;5014793;28;19909;-71
2022/03/25 05:45:08;;;;;;;;;;;10.30;70.60;;;;;;5014369;28;20168;-69
2022/03/25 05:47:35;;;;;;;;;;;10.40;70.80;;;;;;5032461;28;19921;-70
2022/03/25 05:50:02;;;;;;;;;;;10.40;70.70;;;;;;5014816;28;19909;-70
2022/03/25 05:52:28;;;;;;;;;;;10.40;70.70;;;;;;5014892;28;19935;-70
2022/03/25 05:54:55;;;;;;;;;;;10.50;71.10;;;;;;5032135;28;19913;-69
2022/03/25 05:57:21;;;;;;;;;;;10.40;70.50;;;;;;5015168;28;19909;-70
2022/03/25 05:59:48;;;;;;;;;;;10.50;70.40;;;;;;5032523;28;19964;-69
2022/03/25 06:02:14;;;;;;;;;;;10.40;70.60;;;;;;5021610;28;19948;-70
2022/03/25 06:04:40;;;;;;;;;;;10.40;70.80;;;;;;5048696;28;20324;-69
2022/03/25 06:07:07;;;;;;;;;;;10.60;75.20;;;;;;5034823;28;19917;-69
2022/03/25 06:09:33;;;;;;;;;;;11.70;86.20;;;;;;5032576;28;19924;-70
2022/03/25 06:11:59;;;;;;;;;;;13.60;96.30;;;;;;5014569;28;19909;-68
2022/03/25 06:14:26;;;;;;;;;;;14.00;74.40;;;;;;5022149;28;20039;-69
2022/03/25 06:16:52;;;;;;;;;;;12.70;69.10;;;;;;5020658;28;19916;-70
2022/03/25 06:19:20;;;;;;;;;;;12.10;69.70;;;;;;5030676;28;19920;-69
2022/03/25 06:21:46;;;;;;;;;;;11.80;69.70;;;;;;5027578;28;19913;-69
2022/03/25 06:24:12;;;;;;;;;;;11.40;70.90;;;;;;5039670;28;19951;-69
2022/03/25 06:26:38;;;;;;;;;;;11.40;70.90;;;;;;5020033;28;19921;-68
2022/03/25 06:29:04;;;;;;;;;;;11.20;72.10;;;;;;5014228;28;19913;-68
2022/03/25 06:31:30;;;;;;;;;;;11.20;72.40;;;;;;5032471;28;19935;-69
2022/03/25 06:33:56;;;;;;;;;;;11.20;71.80;;;;;;5014339;28;19913;-68
2022/03/25 06:36:22;;;;;;;;;;;11.30;71.80;;;;;;5014494;28;19924;-68
2022/03/25 06:38:49;;;;;;;;;;;11.50;71.10;;;;;;5014389;28;19909;-68
2022/03/25 06:41:15;;;;;;;;;;;11.50;70.90;;;;;;5044200;28;19913;-69
2022/03/25 06:43:41;;;;;;;;;;;11.60;70.60;;;;;;5014192;28;19909;-69
2022/03/25 06:46:07;;;;;;;;;;;11.70;70.50;;;;;;5037656;28;19909;-70
2022/03/25 06:48:34;;;;;;;;;;;11.80;70.00;;;;;;5033799;28;20270;-69
2022/03/25 06:51:05;;;;;;;;;;;12.10;69.10;;;;;;5045536;28;19912;-69
2022/03/25 06:53:30;;;;;;;;;;;12.20;68.80;;;;;;5034291;28;19952;-70
2022/03/25 06:55:56;;;;;;;;;;;12.40;68.50;;;;;;5033098;28;19908;-68
2022/03/25 06:58:22;;;;;;;;;;;12.60;68.00;;;;;;5051826;28;19909;-72
2022/03/25 07:00:48;;;;;;;;;;;12.90;88.40;;;;;;5033401;28;19909;-77
2022/03/25 07:03:14;;;;;;;;;;;13.30;88.30;;;;;;5034565;28;20333;-78
2022/03/25 07:05:41;;;;;;;;;;;13.90;86.30;;;;;;5053066;28;19913;-76
2022/03/25 07:08:07;;;;;;;;;;;14.20;85.70;;;;;;5034303;28;19920;-74
2022/03/25 07:10:37;;;;;;;;;;;14.60;80.10;;;;;;5033598;28;19959;-68
2022/03/25 07:13:03;;;;;;;;;;;14.70;69.20;;;;;;5031964;28;19916;-68
2022/03/25 07:15:29;;;;;;;;;;;14.50;65.30;;;;;;5027789;28;19913;-68
2022/03/25 07:17:55;;;;;;;;;;;14.30;64.30;;;;;;5023429;28;20359;-68
2022/03/25 07:20:25;;;;;;;;;;;14.20;64.50;;;;;;5040143;28;19913;-69
2022/03/25 07:22:52;;;;;;;;;;;14.30;64.10;;;;;;5040558;28;19909;-69
2022/03/25 07:25:19;;;;;;;;;;;14.20;63.90;;;;;;5039609;28;19999;-69
2022/03/25 07:27:46;;;;;;;;;;;14.40;64.10;;;;;;5022246;28;19925;-68
2022/03/25 07:30:12;;;;;;;;;;;14.50;63.60;;;;;;5042489;28;19988;-70
2022/03/25 07:32:38;;;;;;;;;;;14.40;63.40;;;;;;5022712;28;19913;-69
2022/03/25 07:35:04;;;;;;;;;;;14.40;63.20;;;;;;5023522;28;20342;-67
2022/03/25 07:37:30;;;;;;;;;;;14.40;63.80;;;;;;5023738;28;19908;-67
2022/03/25 07:39:55;;;;;;;;;;;14.70;63.50;;;;;;5043068;28;20286;-70
2022/03/25 07:42:21;;;;;;;;;;;14.90;63.00;;;;;;5028046;28;19916;-69
2022/03/25 07:44:47;;;;;;;;;;;15.10;62.50;;;;;;5045794;28;19909;-68
2022/03/25 07:47:14;;;;;;;;;;;15.20;62.30;;;;;;5023782;28;19917;-69
2022/03/25 07:49:43;;;;;;;;;;;15.30;62.40;;;;;;5045325;28;19995;-69
2022/03/25 07:52:10;;;;;;;;;;;15.40;62.10;;;;;;5034941;28;19909;-68
2022/03/25 07:54:36;;;;;;;;;;;15.60;62.60;;;;;;5036417;28;19934;-68
2022/03/25 07:57:02;;;;;;;;;;;15.90;61.60;;;;;;5053410;28;19913;-67
2022/03/25 07:59:28;;;;;;;;;;;16.10;61.00;;;;;;5036460;28;20427;-68
2022/03/25 08:01:54;;;;;;;;;;;16.10;60.70;;;;;;5054319;28;19949;-67
2022/03/25 08:04:21;;;;;;;;;;;16.10;60.80;;;;;;5030681;28;19924;-62
2022/03/25 08:06:47;;;;;;;;;;;16.40;65.70;;;;;;5022106;28;20059;-61
2022/03/25 08:09:12;;;;;;;;;;;17.30;73.70;;;;;;5028592;28;20000;-61
2022/03/25 08:11:39;;;;;;;;;;;17.80;69.40;;;;;;5042874;28;19913;-61
2022/03/25 08:14:04;;;;;;;;;;;18.40;68.20;;;;;;5046426;28;19998;-60
2022/03/25 08:16:30;;;;;;;;;;;18.60;64.20;;;;;;5052151;28;19956;-61
2022/03/25 08:18:56;;;;;;;;;;;18.90;67.20;;;;;;5026555;28;19932;-60
2022/03/25 08:21:21;;;;;;;;;;;19.00;62.80;;;;;;5045188;28;19910;-68
2022/03/25 08:29:17;;;;;;;;;;;18.80;57.60;;;;;;5044296;28;19982;-67
2022/03/25 08:31:43;;;;;;;;;;;18.80;57.20;;;;;;5053143;28;20389;-69
2022/03/25 08:34:14;;;;;;;;;;;18.90;57.10;;;;;;5057947;28;20296;-67
2022/03/25 08:36:40;;;;;;;;;;;18.90;57.10;;;;;;5073628;28;20385;-67
2022/03/25 08:39:05;;;;;;;;;;;19.10;57.00;;;;;;5057367;28;19912;-69
2022/03/25 08:41:31;;;;;;;;;;;19.40;56.20;;;;;;5043342;28;20353;-71
2022/03/25 08:43:56;;;;;;;;;;;19.40;55.60;;;;;;5024677;28;19916;-69
2022/03/25 08:46:22;;;;;;;;;;;19.60;55.80;;;;;;5025766;28;19921;-78
2022/03/25 08:48:48;;;;;;;;;;;19.60;62.90;;;;;;5019030;28;19909;-75
2022/03/25 08:51:13;;;;;;;;;;;19.70;57.60;;;;;;5030157;28;20020;-75
2022/03/25 08:53:40;;;;;;;;;;;20.00;57.30;;;;;;5021468;28;19963;-77
2022/03/25 08:56:06;;;;;;;;;;;20.20;56.30;;;;;;5021252;28;19913;-76
2022/03/25 08:58:31;;;;;;;;;;;20.30;56.90;;;;;;5031735;28;19913;-75
2022/03/25 09:00:57;;;;;;;;;;;20.50;56.50;;;;;;5047633;28;19966;-67
2022/03/25 09:03:23;;;;;;;;;;;20.70;54.60;;;;;;5046988;28;20378;-68
2022/03/25 09:05:49;;;;;;;;;;;20.90;53.70;;;;;;5048390;28;20315;-69
2022/03/25 09:08:15;;;;;;;;;;;21.10;54.10;;;;;;5028880;28;19979;-70
2022/03/25 09:10:41;;;;;;;;;;;21.00;53.50;;;;;;5029310;28;19919;-68
2022/03/25 09:13:07;;;;;;;;;;;21.10;53.60;;;;;;5047943;28;19912;-69
2022/03/25 09:15:32;;;;;;;;;;;21.50;53.40;;;;;;5057524;28;19916;-69
2022/03/25 09:17:58;;;;;;;;;;;21.70;52.70;;;;;;5049411;28;20306;-69
2022/03/25 09:20:23;;;;;;;;;;;21.70;52.80;;;;;;5052497;28;19999;-69
2022/03/25 09:22:51;;;;;;;;;;;21.80;52.80;;;;;;5037876;28;19923;-68
2022/03/25 09:25:16;;;;;;;;;;;21.80;52.50;;;;;;5046897;28;20355;-68
2022/03/25 09:27:42;;;;;;;;;;;22.10;52.20;;;;;;5015200;28;19932;-70
2022/03/25 09:30:09;;;;;;;;;;;22.10;52.30;;;;;;5026906;28;19913;-68
2022/03/25 09:32:34;;;;;;;;;;;22.40;52.30;;;;;;5009216;28;20020;-69
2022/03/25 09:35:09;;;;;;;;;;;22.60;52.10;;;;;;5027802;28;20102;-69
2022/03/25 09:37:35;;;;;;;;;;;22.60;52.40;;;;;;5009325;28;19959;-69
2022/03/25 09:40:02;;;;;;;;;;;22.80;52.40;;;;;;5019006;28;19917;-70
2022/03/25 09:42:28;;;;;;;;;;;23.00;51.90;;;;;;5014881;28;20427;-68
2022/03/25 09:44:53;;;;;;;;;;;22.90;51.70;;;;;;5046372;28;20051;-70
2022/03/25 09:47:20;;;;;;;;;;;23.00;51.60;;;;;;5031968;28;20012;-69
2022/03/25 09:49:45;;;;;;;;;;;23.20;51.50;;;;;;5008898;28;19943;-69
2022/03/25 09:52:11;;;;;;;;;;;23.50;51.40;;;;;;5030757;28;19913;-68
2022/03/25 09:54:36;;;;;;;;;;;23.30;51.20;;;;;;5033626;28;20369;-69
2022/03/25 09:57:03;;;;;;;;;;;23.60;50.80;;;;;;5033882;28;19954;-67
2022/03/25 09:59:29;;;;;;;;;;;23.70;50.50;;;;;;5035075;28;19970;-68
2022/03/25 10:01:55;;;;;;;;;;;23.80;50.40;;;;;;5014646;28;19917;-70
2022/03/25 10:04:39;;;;;;;;;;;23.60;50.30;;;;;;5025805;28;20390;-68
2022/03/25 10:07:21;;;;;;;;;;;23.90;50.80;;;;;;5030129;28;20003;-69
2022/03/25 10:09:48;;;;;;;;;;;24.10;50.40;;;;;;5028513;28;19909;-69
2022/03/25 10:12:25;;;;;;;;;;;23.70;50.60;;;;;;5014812;28;19956;-69
2022/03/25 10:14:51;;;;;;;;;;;24.10;49.70;;;;;;5017151;28;19913;-70
2022/03/25 10:17:18;;;;;;;;;;;24.50;49.20;;;;;;5015796;28;19909;-70
2022/03/25 10:19:48;;;;;;;;;;;24.50;49.70;;;;;;5017011;28;20025;-72
2022/03/25 10:22:14;;;;;;;;;;;24.70;49.20;;;;;;5009685;28;19917;-71
2022/03/25 10:24:44;;;;;;;;;;;24.70;49.20;;;;;;5027434;28;19909;-58
2022/03/25 10:27:10;;;;;;;;;;;25.00;48.30;;;;;;5022812;28;20394;-69
2022/03/25 10:29:35;;;;;;;;;;;25.20;48.80;;;;;;5031379;28;19971;-68
2022/03/25 10:32:08;;;;;;;;;;;25.30;48.00;;;;;;5031473;28;19913;-68
2022/03/25 10:34:35;;;;;;;;;;;24.50;48.90;;;;;;5030091;28;19913;-67
2022/03/25 10:37:01;;;;;;;;;;;25.20;48.60;;;;;;5030037;28;19956;-68
2022/03/25 10:39:27;;;;;;;;;;;25.40;48.70;;;;;;5030900;28;20429;-71
2022/03/25 10:41:56;;;;;;;;;;;25.60;48.80;;;;;;5029902;28;19909;-69
2022/03/25 10:44:32;;;;;;;;;;;25.70;48.10;;;;;;5028873;28;19917;-69
2022/03/25 10:46:57;;;;;;;;;;;25.90;49.20;;;;;;5020670;28;19921;-69
2022/03/25 10:49:23;;;;;;;;;;;25.90;48.20;;;;;;5024972;28;20572;-68
2022/03/25 10:51:56;;;;;;;;;;;26.10;47.90;;;;;;5022063;28;19960;-68
2022/03/25 10:54:23;;;;;;;;;;;26.20;46.90;;;;;;5028687;28;20350;-70
2022/03/25 10:56:48;;;;;;;;;;;26.00;46.60;;;;;;5030770;28;19944;-69
2022/03/25 10:59:22;;;;;;;;;;;25.60;47.30;;;;;;5030143;28;19971;-69
2022/03/25 11:01:50;;;;;;;;;;;25.70;47.40;;;;;;5029588;28;20219;-69
2022/03/25 11:04:15;;;;;;;;;;;25.50;46.40;;;;;;5022881;28;20024;-69
2022/03/25 11:06:42;;;;;;;;;;;25.90;46.80;;;;;;5025709;28;19965;-67
2022/03/25 11:09:11;;;;;;;;;;;25.90;46.50;;;;;;5009276;28;19917;-70
2022/03/25 11:11:37;;;;;;;;;;;26.20;47.00;;;;;;5024129;28;19909;-68
2022/03/25 11:14:04;;;;;;;;;;;26.40;47.00;;;;;;5034527;28;19945;-70
2022/03/25 11:16:31;;;;;;;;;;;26.20;47.00;;;;;;5031883;28;20279;-69
2022/03/25 11:18:57;;;;;;;;;;;26.60;46.80;;;;;;5028053;28;19914;-70
2022/03/25 11:21:23;;;;;;;;;;;26.80;46.60;;;;;;5016705;28;19913;-69
2022/03/25 11:23:51;;;;;;;;;;;27.10;46.50;;;;;;5061255;28;20322;-69
2022/03/25 11:26:19;;;;;;;;;;;27.20;46.60;;;;;;5028350;28;19917;-69
2022/03/25 11:28:45;;;;;;;;;;;27.00;46.30;;;;;;5026195;28;19975;-70
2022/03/25 11:31:11;;;;;;;;;;;27.20;46.00;;;;;;5033792;28;19905;-69
2022/03/25 11:33:55;;;;;;;;;;;27.00;45.10;;;;;;5032202;28;19916;-69
2022/03/25 11:36:24;;;;;;;;;;;27.10;45.30;;;;;;5031775;28;19909;-70
2022/03/25 11:39:09;;;;;;;;;;;27.20;45.30;;;;;;5033996;28;19909;-69
2022/03/25 11:41:35;;;;;;;;;;;27.00;45.40;;;;;;5033804;28;19955;-68
2022/03/25 11:44:15;;;;;;;;;;;27.30;45.20;;;;;;5032110;28;19952;-68
2022/03/25 11:46:59;;;;;;;;;;;27.50;44.80;;;;;;5033690;28;19917;-69
2022/03/25 11:49:25;;;;;;;;;;;27.60;45.00;;;;;;5031486;28;19991;-70
2022/03/25 11:51:51;;;;;;;;;;;27.50;44.50;;;;;;5032141;28;20338;-70
2022/03/25 11:54:35;;;;;;;;;;;27.30;44.70;;;;;;5031735;28;19909;-69
2022/03/25 11:57:02;;;;;;;;;;;27.60;44.40;;;;;;5032193;28;19905;-70
2022/03/25 11:59:45;;;;;;;;;;;27.50;43.90;;;;;;5031099;28;20370;-69
2022/03/25 12:02:23;;;;;;;;;;;27.40;43.80;;;;;;5032721;28;19905;-71
2022/03/25 12:04:49;;;;;;;;;;;27.30;44.50;;;;;;5038123;28;19990;-70
2022/03/25 12:07:16;;;;;;;;;;;27.50;44.30;;;;;;5033860;28;19983;-69
2022/03/25 12:09:45;;;;;;;;;;;27.60;44.20;;;;;;5041130;28;20325;-72
2022/03/25 12:12:11;;;;;;;;;;;28.30;44.90;;;;;;5048304;28;19974;-69
2022/03/25 12:14:56;;;;;;;;;;;28.20;44.00;;;;;;5022192;28;19909;-71
2022/03/25 12:17:22;;;;;;;;;;;28.20;44.10;;;;;;5040636;28;19967;-69
2022/03/25 12:19:51;;;;;;;;;;;27.50;44.40;;;;;;5033234;28;19905;-69
2022/03/25 12:22:19;;;;;;;;;;;27.90;44.20;;;;;;5037014;28;20277;-70
2022/03/25 12:24:48;;;;;;;;;;;28.20;44.10;;;;;;5033832;28;19984;-69
2022/03/25 12:27:14;;;;;;;;;;;28.50;43.70;;;;;;5020026;28;20008;-70
2022/03/25 12:29:41;;;;;;;;;;;28.30;43.50;;;;;;5047805;28;19944;-70
2022/03/25 12:32:08;;;;;;;;;;;28.20;43.10;;;;;;5014425;28;19912;-69
2022/03/25 12:34:33;;;;;;;;;;;28.30;43.40;;;;;;5038755;28;19920;-70
2022/03/25 12:37:01;;;;;;;;;;;28.40;42.40;;;;;;5031583;28;19905;-71
2022/03/25 12:39:28;;;;;;;;;;;28.50;42.30;;;;;;5030221;28;19912;-71
2022/03/25 12:41:53;;;;;;;;;;;28.90;42.80;;;;;;5034823;28;20385;-70
2022/03/25 12:44:28;;;;;;;;;;;29.10;42.70;;;;;;5051905;28;20055;-69
2022/03/25 12:47:01;;;;;;;;;;;28.70;42.00;;;;;;5034559;28;19917;-72
2022/03/25 12:49:27;;;;;;;;;;;28.60;41.50;;;;;;5033349;28;19905;-69
2022/03/25 12:51:56;;;;;;;;;;;28.50;41.90;;;;;;5035127;28;20008;-70
2022/03/25 12:54:21;;;;;;;;;;;27.30;42.90;;;;;;5051468;28;20345;-72
2022/03/25 12:56:54;;;;;;;;;;;27.60;43.00;;;;;;5032840;28;19920;-70
2022/03/25 12:59:30;;;;;;;;;;;28.10;42.20;;;;;;5025054;28;20023;-69
2022/03/25 13:01:56;;;;;;;;;;;28.30;41.70;;;;;;5022535;28;19905;-70
2022/03/25 13:04:28;;;;;;;;;;;28.40;41.40;;;;;;5031805;28;19943;-70
2022/03/25 13:07:13;;;;;;;;;;;28.50;41.40;;;;;;5014402;28;19933;-70
2022/03/25 13:09:54;;;;;;;;;;;28.70;41.50;;;;;;5032915;28;19911;-72
2022/03/25 13:12:30;;;;;;;;;;;28.30;41.20;;;;;;5031705;28;19909;-69
2022/03/25 13:14:56;;;;;;;;;;;28.40;41.80;;;;;;5019245;28;19909;-69
2022/03/25 13:17:27;;;;;;;;;;;28.30;41.40;;;;;;5014910;28;19905;-70
2022/03/25 13:19:56;;;;;;;;;;;28.60;42.00;;;;;;5013985;28;19981;-70
2022/03/25 13:22:22;;;;;;;;;;;28.40;41.10;;;;;;5031813;28;19909;-63
2022/03/25 13:24:51;;;;;;;;;;;28.00;42.00;;;;;;5013908;28;20345;-64
2022/03/25 13:27:17;;;;;;;;;;;28.10;43.50;;;;;;5035081;28;20415;-63
2022/03/25 13:29:42;;;;;;;;;;;28.00;43.50;;;;;;5051665;28;20003;-71
2022/03/25 13:32:08;;;;;;;;;;;27.90;42.30;;;;;;5047621;28;19909;-73
2022/03/25 13:34:36;;;;;;;;;;;27.60;41.60;;;;;;5050601;28;19920;-72
2022/03/25 13:37:01;;;;;;;;;;;27.60;41.30;;;;;;5051792;28;19905;-73
2022/03/25 13:39:31;;;;;;;;;;;27.40;41.50;;;;;;5051275;28;19988;-73
2022/03/25 13:42:00;;;;;;;;;;;27.20;41.20;;;;;;5033232;28;19999;-72
2022/03/25 13:44:25;;;;;;;;;;;27.10;41.90;;;;;;5032537;28;19912;-72
2022/03/25 13:46:55;;;;;;;;;;;27.20;42.00;;;;;;5020420;28;19913;-71
2022/03/25 13:49:22;;;;;;;;;;;27.40;41.70;;;;;;5028586;28;19924;-72
2022/03/25 13:51:47;;;;;;;;;;;27.30;41.00;;;;;;5022059;28;20087;-72
2022/03/25 13:54:17;;;;;;;;;;;27.40;41.20;;;;;;5029234;28;19944;-71
2022/03/25 13:57:04;;;;;;;;;;;27.30;41.30;;;;;;5045619;28;19939;-77
2022/03/25 13:59:40;;;;;;;;;;;27.10;41.30;;;;;;5050899;28;19997;-61
2022/03/25 14:02:22;;;;;;;;;;;27.10;41.80;;;;;;5051160;28;19905;-61
2022/03/25 14:04:47;;;;;;;;;;;27.20;45.60;;;;;;5018973;28;19950;-62
2022/03/25 14:07:16;;;;;;;;;;;27.10;42.70;;;;;;5039936;28;20230;-64
2022/03/25 14:09:42;;;;;;;;;;;26.80;42.80;;;;;;5049716;28;19916;-62
2022/03/25 14:12:17;;;;;;;;;;;26.00;44.20;;;;;;5050688;28;19905;-63
2022/03/25 14:14:54;;;;;;;;;;;26.10;43.70;;;;;;5050687;28;19917;-62
2022/03/25 14:17:19;;;;;;;;;;;26.10;44.50;;;;;;5050172;28;19908;-63
2022/03/25 14:19:45;;;;;;;;;;;26.10;45.00;;;;;;5032167;28;20271;-61
2022/03/25 14:22:11;;;;;;;;;;;26.40;45.70;;;;;;5032515;28;19970;-63